Legend :    VFR   Marginal VFR   IFR   Intensive IFR   Very Intensive IFR
Visi :
Ceiling :
>= 8 km
>= 3000ft
5 to 8 km
1000 to 3000 ft
1500m to 5 km
500 to 1000 ft
800 to 1500m
200 to 500 ft
< 800m
< 200 ft
Symbols :   Thunderstorms  Fog  Heavy snow  Heavy precipitations  Wind > 20 kt
SIGMETs :     Misc.  Thunderstorms  Icing  Turbulence  Mountain Waves  Volcanic Ashes






- Airport Elevation : 876 ft
- IATA code : MBX


LJMB - Maribor

CURRENT METAR :
  • 280200Z AUTO VRB01KT 9999 BKN018/// BKN048/// 15/12 Q1016

EXPIRED METARs :
  • 280130Z AUTO VRB03KT 9999 BKN017/// BKN056/// 15/12 Q1016
  • 280100Z AUTO VRB01KT 9999 BKN015/// BKN054/// BKN120/// 15/13 Q1016
  • 280030Z AUTO 02004KT 350V060 9999 SCT015/// BKN057/// BKN130/// 15/14 Q1016
  • 280000Z AUTO 10004KT 060V160 9999 -SHRA SCT017/// OVC053/// 16/13 Q1016
  • 272330Z AUTO VRB01KT 9999 -SHRA BKN046/// OVC072/// 16/14 Q1016
  • 272300Z AUTO VRB01KT 9999 BKN050/// 17/15 Q1016

TAF TAF LJMB
Valid from the 28 at 00:00 until the 29 at 00:00 UTC


272300Z 2800/2900 05005KT 9999 SCT030 BKN050
TEMPO 2800/2900 RA
PROB40
TEMPO 2803/2814 OVC015


LOGIN :  

Disclaimer |     EN      FR      IT 



MET'MAP, your aeronautical weather chart ! - Copyright ORBIFLY December 2007 - Disclaimer


ORBIFLY MET'MAP TEAM :

Programming & Development : Alexandra Zaïnal
Original concept : Baudouin d'Aumeries
Technical & hardware support : Manuel Goepfert
Assistance : Marc-Olivier Méhu

Contact : metmap@orbifly.com




SOURCES & CREDITS :

   NOAA